createdAt,value
2023-09-18T00:00:52.687Z,54.98
2023-09-18T00:03:20.241Z,54.79
2023-09-18T00:05:48.097Z,55.31
2023-09-18T00:08:15.360Z,57.78
2023-09-18T00:10:48.056Z,58.56
2023-09-18T00:16:02.352Z,59.56
2023-09-18T00:18:30.171Z,60.35
2023-09-18T00:21:02.787Z,61.71
2023-09-18T00:23:35.936Z,61.13
2023-09-18T00:29:05.094Z,63.68
2023-09-18T00:34:26.458Z,62.99
2023-09-18T00:36:59.316Z,63.49
2023-09-18T00:39:30.024Z,63.78
2023-09-18T00:42:02.959Z,63.93
2023-09-18T00:44:32.737Z,62.19
2023-09-18T00:47:07.108Z,62.61
2023-09-18T00:55:27.178Z,63.55
2023-09-18T00:57:55.452Z,63.68
2023-09-18T01:00:22.656Z,65.77
2023-09-18T01:02:55.347Z,65.64
2023-09-18T01:05:28.018Z,62.91
2023-09-18T01:08:07.785Z,60.79
2023-09-18T01:13:26.567Z,58.12
2023-09-18T01:16:00.164Z,57.96
2023-09-18T01:18:33.087Z,59.13
2023-09-18T01:21:05.926Z,60.31
2023-09-18T01:23:34.629Z,59.76
2023-09-18T01:26:02.423Z,58.85
2023-09-18T01:31:27.091Z,59.12
2023-09-18T01:33:55.118Z,61.88
2023-09-18T01:36:28.135Z,64.20
2023-09-18T01:38:59.188Z,64.83
2023-09-18T01:41:29.124Z,68.02
2023-09-18T01:44:08.307Z,66.44
2023-09-18T01:46:35.672Z,63.38
2023-09-18T01:49:05.319Z,66.12
2023-09-18T01:51:33.613Z,64.72
2023-09-18T01:56:54.691Z,62.65
2023-09-18T01:59:31.364Z,61.97
2023-09-18T02:02:06.110Z,60.42
2023-09-18T02:04:42.627Z,59.82
2023-09-18T02:07:21.206Z,60.92
2023-09-18T02:09:55.067Z,60.32
2023-09-18T02:12:25.051Z,60.44
2023-09-18T02:14:58.869Z,61.38
2023-09-18T02:17:27.112Z,63.12
2023-09-18T02:25:47.190Z,65.35
2023-09-18T02:28:16.883Z,65.59
2023-09-18T02:30:49.691Z,64.95
2023-09-18T02:33:20.430Z,67.79
2023-09-18T02:35:48.338Z,69.56
2023-09-18T02:38:22.733Z,68.70
2023-09-18T02:40:59.798Z,66.42
2023-09-18T02:43:29.722Z,67.09
2023-09-18T02:46:01.359Z,67.86
2023-09-18T02:51:24.835Z,67.79
2023-09-18T02:53:57.707Z,66.13
2023-09-18T02:56:25.647Z,65.08
2023-09-18T02:58:54.704Z,63.39
2023-09-18T03:01:23.565Z,62.38
2023-09-18T03:03:52.317Z,63.50
2023-09-18T03:06:19.862Z,61.68
2023-09-18T03:08:49.650Z,60.54
2023-09-18T03:11:16.903Z,59.51
2023-09-18T03:16:40.942Z,59.50
2023-09-18T03:19:13.610Z,57.42
2023-09-18T03:24:50.975Z,59.15
2023-09-18T03:27:19.857Z,58.57
2023-09-18T03:32:41.581Z,58.24
2023-09-18T03:35:17.550Z,58.20
2023-09-18T03:37:44.742Z,58.67
2023-09-18T03:40:14.794Z,59.08
2023-09-18T03:42:43.051Z,58.50
2023-09-18T03:45:16.056Z,56.75
2023-09-18T03:47:43.353Z,54.72
2023-09-18T03:50:16.256Z,56.00
2023-09-18T03:52:45.858Z,56.67
2023-09-18T03:55:14.521Z,55.52
2023-09-18T03:57:43.378Z,54.71
2023-09-18T04:00:16.025Z,54.22
2023-09-18T04:02:43.024Z,55.29
2023-09-18T04:08:00.832Z,56.62
2023-09-18T04:10:33.708Z,57.34
2023-09-18T04:13:03.295Z,57.22
2023-09-18T04:15:39.155Z,57.98
2023-09-18T04:18:12.045Z,59.67
2023-09-18T04:20:44.535Z,60.80
2023-09-18T04:23:16.052Z,62.03
2023-09-18T04:25:44.911Z,62.29
2023-09-18T04:28:18.516Z,61.78
2023-09-18T04:30:50.473Z,64.60
2023-09-18T04:33:27.154Z,66.21
2023-09-18T04:35:57.605Z,67.85
2023-09-18T04:38:30.528Z,69.09
2023-09-18T04:41:00.891Z,69.89
2023-09-18T04:43:33.627Z,72.18
2023-09-18T04:46:07.286Z,70.92
2023-09-18T04:48:37.601Z,68.84
2023-09-18T04:51:04.808Z,68.47
2023-09-18T04:53:32.060Z,64.48
2023-09-18T04:56:01.981Z,64.19
2023-09-18T04:58:32.251Z,63.55
2023-09-18T05:00:59.540Z,60.62
2023-09-18T05:03:29.209Z,61.33
2023-09-18T05:06:02.712Z,59.64
2023-09-18T05:08:38.749Z,58.94
2023-09-18T05:11:09.482Z,56.80
2023-09-18T05:13:40.673Z,55.09
2023-09-18T05:19:08.173Z,56.24
2023-09-18T05:21:40.887Z,57.21
2023-09-18T05:24:14.711Z,60.23
2023-09-18T06:06:07.474Z,64.21
2023-09-18T06:08:34.111Z,64.79
2023-09-18T06:11:00.796Z,65.65
2023-09-18T06:13:27.413Z,64.48
2023-09-18T06:15:53.889Z,64.64
2023-09-18T06:18:20.497Z,64.20
2023-09-18T06:20:47.180Z,63.04
2023-09-18T06:23:16.564Z,66.33
2023-09-18T06:25:44.097Z,68.80
2023-09-18T06:28:10.936Z,68.89
2023-09-18T06:30:37.747Z,68.63
2023-09-18T06:33:04.494Z,68.38
2023-09-18T06:35:31.167Z,68.80
2023-09-18T06:37:57.734Z,70.29
2023-09-18T06:40:24.609Z,69.56
2023-09-18T06:42:51.207Z,69.98
2023-09-18T06:45:18.125Z,70.03
2023-09-18T06:47:46.597Z,69.21
2023-09-18T06:50:13.605Z,67.48
2023-09-18T06:52:40.697Z,67.90
2023-09-18T06:55:07.262Z,67.54
2023-09-18T06:57:35.236Z,67.40
2023-09-18T07:00:02.127Z,66.54
2023-09-18T07:02:28.816Z,66.64
2023-09-18T07:04:55.346Z,65.71
2023-09-18T07:07:22.227Z,65.89
2023-09-18T07:10:03.604Z,65.41
2023-09-18T07:12:33.255Z,67.47
2023-09-18T07:15:00.172Z,67.35
2023-09-18T07:17:29.475Z,68.39
2023-09-18T07:19:56.098Z,67.76
2023-09-18T07:22:23.053Z,70.29
2023-09-18T07:24:49.945Z,71.06
2023-09-18T07:27:16.812Z,70.98
2023-09-18T07:29:44.556Z,70.20
2023-09-18T07:32:11.272Z,71.41
2023-09-18T07:34:37.904Z,72.37
2023-09-18T07:37:04.490Z,71.78
2023-09-18T07:39:31.372Z,73.00
2023-09-18T07:41:59.330Z,70.97
2023-09-18T07:44:25.912Z,71.63
2023-09-18T07:46:56.631Z,73.06
2023-09-18T07:49:26.860Z,76.96
2023-09-18T07:51:57.117Z,77.03
2023-09-18T07:54:25.866Z,77.27
2023-09-18T07:56:52.945Z,78.20
2023-09-18T07:59:20.473Z,74.59
2023-09-18T08:01:51.428Z,74.46
2023-09-18T08:04:18.138Z,73.25
2023-09-18T08:06:46.956Z,71.07
2023-09-18T08:09:14.187Z,71.44
2023-09-18T08:11:47.660Z,70.17
2023-09-18T08:14:18.062Z,69.41
2023-09-18T08:25:59.060Z,69.86
2023-09-18T08:28:26.963Z,68.31
2023-09-18T08:28:48.324Z,68.47
2023-09-18T08:39:16.910Z,71.62
2023-09-18T08:44:54.894Z,74.69
2023-09-18T08:50:27.062Z,75.95
2023-09-18T08:52:54.246Z,73.87
2023-09-18T08:55:21.453Z,75.88
2023-09-18T08:57:47.950Z,78.67
2023-09-18T09:00:14.778Z,77.19
2023-09-18T09:02:41.955Z,80.58
2023-09-18T09:05:08.705Z,81.88
2023-09-18T09:07:35.661Z,82.19
2023-09-18T09:10:03.190Z,79.50
2023-09-18T09:12:30.017Z,77.92
2023-09-18T09:14:56.595Z,80.43
2023-09-18T09:17:23.220Z,83.68
2023-09-18T09:19:49.870Z,85.30
2023-09-18T09:22:16.567Z,86.29
2023-09-18T09:24:43.963Z,83.67
2023-09-18T09:27:10.842Z,84.06
2023-09-18T09:29:37.591Z,83.63
2023-09-18T09:32:04.143Z,81.01
2023-09-18T09:34:30.670Z,78.34
2023-09-18T09:36:57.210Z,78.10
2023-09-18T09:39:24.067Z,77.12
2023-09-18T09:41:50.672Z,77.67
2023-09-18T09:44:17.236Z,74.75
2023-09-18T09:46:43.943Z,75.46
2023-09-18T09:49:10.849Z,74.65
2023-09-18T09:51:37.357Z,75.75
2023-09-18T09:54:03.840Z,77.03
2023-09-18T09:56:30.419Z,83.06
2023-09-18T09:58:56.906Z,85.45
2023-09-18T10:01:23.807Z,87.86
2023-09-18T10:03:51.094Z,88.11
2023-09-18T10:06:19.081Z,82.97
2023-09-18T10:08:47.834Z,79.95
2023-09-18T10:11:14.728Z,79.79
2023-09-18T10:13:41.407Z,78.58
2023-09-18T10:16:08.015Z,77.48
2023-09-18T10:18:34.764Z,74.73
2023-09-18T10:21:01.408Z,72.74
2023-09-18T10:23:28.203Z,71.54
2023-09-18T10:25:55.026Z,75.21
2023-09-18T10:28:21.874Z,74.28
2023-09-18T10:30:48.488Z,72.54
2023-09-18T10:33:15.122Z,72.88
2023-09-18T10:35:41.891Z,75.65
2023-09-18T10:38:08.831Z,72.64
2023-09-18T10:40:35.762Z,71.23
2023-09-18T10:43:02.445Z,68.57
2023-09-18T10:45:29.060Z,66.57
2023-09-18T10:47:56.148Z,65.21
2023-09-18T10:50:26.884Z,64.78
2023-09-18T10:52:54.789Z,66.92
2023-09-18T10:55:22.139Z,66.26
2023-09-18T11:04:01.771Z,65.77
2023-09-18T11:09:57.096Z,73.11
2023-09-18T11:21:48.482Z,71.50
2023-09-18T11:24:26.849Z,71.69
2023-09-18T11:26:54.301Z,70.26
2023-09-18T11:29:20.993Z,74.57
2023-09-18T11:31:54.279Z,80.05
2023-09-18T11:43:40.007Z,88.35
2023-09-18T11:46:13.223Z,89.07
2023-09-18T12:01:29.928Z,76.69
2023-09-18T12:03:58.817Z,78.39
2023-09-18T12:06:27.543Z,78.14
2023-09-18T12:15:15.810Z,72.51
2023-09-18T12:17:42.569Z,74.25
2023-09-18T12:20:12.444Z,76.49
2023-09-18T12:22:40.860Z,76.63
2023-09-18T12:27:53.484Z,81.58
2023-09-18T12:30:23.678Z,77.30
2023-09-18T12:32:52.242Z,80.53
2023-09-18T12:35:20.028Z,82.73
2023-09-18T12:37:47.563Z,81.13
2023-09-18T12:40:16.129Z,78.16
2023-09-18T12:42:43.593Z,80.66
2023-09-18T12:45:10.784Z,78.39
2023-09-18T12:47:40.768Z,75.31
2023-09-18T12:50:07.561Z,73.37
2023-09-18T12:52:34.539Z,70.40
2023-09-18T12:55:01.166Z,72.20
2023-09-18T12:57:30.605Z,69.97
2023-09-18T12:59:57.422Z,70.13
2023-09-18T13:02:29.938Z,67.86
2023-09-18T13:05:00.584Z,70.26
2023-09-18T13:07:28.487Z,69.23
2023-09-18T13:09:55.563Z,67.73
2023-09-18T13:12:23.226Z,65.94
2023-09-18T13:14:52.234Z,63.82
2023-09-18T13:17:19.200Z,64.45
2023-09-18T13:22:15.642Z,70.03
2023-09-18T13:24:42.622Z,71.35
2023-09-18T13:27:14.682Z,70.47
2023-09-18T13:29:43.318Z,69.58
2023-09-18T13:32:10.515Z,67.56
2023-09-18T13:34:37.453Z,65.53
2023-09-18T13:37:04.567Z,65.50
2023-09-18T13:39:31.454Z,64.32
2023-09-18T13:41:59.242Z,62.85
2023-09-18T13:44:26.470Z,62.70
2023-09-18T13:46:56.288Z,63.88
2023-09-18T13:49:28.529Z,63.55
2023-09-18T13:58:28.892Z,60.24
2023-09-18T14:00:55.701Z,59.83
2023-09-18T14:03:22.544Z,57.49
2023-09-18T14:05:49.433Z,58.01
2023-09-18T14:08:16.613Z,56.98
2023-09-18T14:10:45.427Z,57.49
2023-09-18T14:13:14.507Z,61.33
2023-09-18T14:15:44.062Z,62.33
2023-09-18T14:18:11.803Z,61.77
2023-09-18T14:20:38.675Z,64.07
2023-09-18T14:23:07.196Z,63.40
2023-09-18T14:25:34.269Z,64.03
2023-09-18T14:28:03.475Z,61.71
2023-09-18T14:30:30.336Z,59.70
2023-09-18T14:32:57.258Z,59.38
2023-09-18T14:35:27.185Z,62.06
2023-09-18T14:37:56.316Z,64.91
2023-09-18T14:40:24.121Z,66.73
2023-09-18T14:42:51.759Z,65.93
2023-09-18T14:45:18.907Z,65.79
2023-09-18T14:47:45.902Z,67.06
2023-09-18T14:50:12.596Z,67.08
2023-09-18T14:55:54.602Z,69.46
2023-09-18T14:58:22.943Z,66.19
2023-09-18T15:00:49.630Z,63.06
2023-09-18T15:03:16.445Z,61.36
2023-09-18T15:05:43.900Z,61.66
2023-09-18T15:08:11.930Z,60.79
2023-09-18T15:10:43.484Z,61.97
2023-09-18T15:13:14.501Z,60.99
2023-09-18T15:15:43.264Z,59.92
2023-09-18T15:18:16.406Z,58.82
2023-09-18T15:20:45.548Z,58.72
2023-09-18T15:23:40.926Z,57.08
2023-09-18T15:26:07.807Z,55.99
2023-09-18T15:28:34.584Z,55.34
2023-09-18T15:34:17.750Z,52.35
2023-09-18T15:36:47.864Z,54.00
2023-09-18T15:39:16.911Z,54.11
2023-09-18T15:41:45.368Z,53.68
2023-09-18T15:44:12.084Z,54.60
2023-09-18T15:46:38.999Z,53.75
2023-09-18T15:49:06.110Z,54.28
2023-09-18T15:51:32.771Z,54.19
2023-09-18T15:54:00.113Z,53.58
2023-09-18T15:56:27.634Z,55.44
2023-09-18T15:58:54.996Z,53.83
2023-09-18T16:01:24.616Z,53.02
2023-09-18T16:03:51.647Z,52.97
2023-09-18T16:06:18.432Z,53.64
2023-09-18T16:08:46.070Z,53.09
2023-09-18T16:11:14.044Z,52.84
2023-09-18T16:13:41.044Z,53.54
2023-09-18T17:09:14.045Z,60.94
2023-09-18T17:11:47.891Z,58.65
2023-09-18T17:14:14.822Z,58.07
2023-09-18T17:16:41.997Z,58.18
2023-09-18T17:19:16.033Z,57.37
2023-09-18T17:21:44.984Z,57.61
2023-09-18T17:24:11.776Z,57.24
2023-09-18T17:26:39.240Z,57.43
2023-09-18T17:29:08.993Z,57.46
2023-09-18T17:31:36.916Z,58.39
2023-09-18T17:34:04.526Z,58.52
2023-09-18T17:39:08.855Z,59.92
2023-09-18T17:41:36.090Z,61.46
2023-09-18T17:46:48.922Z,59.37
2023-09-18T17:49:16.153Z,58.57
2023-09-18T17:51:47.009Z,59.37
2023-09-18T17:54:13.606Z,60.48
2023-09-18T17:56:40.519Z,60.67
2023-09-18T17:59:09.621Z,61.20
2023-09-18T18:01:36.637Z,60.54
2023-09-18T18:04:03.508Z,59.32
2023-09-18T18:06:30.357Z,59.28
2023-09-18T18:08:59.914Z,58.98
2023-09-18T18:11:26.651Z,58.27
2023-09-18T18:13:55.996Z,59.70
2023-09-18T18:16:22.637Z,58.68
2023-09-18T18:18:49.544Z,58.26
2023-09-18T18:21:16.184Z,59.75
2023-09-18T18:23:46.755Z,59.82
2023-09-18T18:26:13.509Z,58.91
2023-09-18T18:28:40.351Z,59.50
2023-09-18T18:31:08.804Z,60.05
2023-09-18T18:33:35.857Z,60.29
2023-09-18T18:38:49.537Z,58.72
2023-09-18T18:41:17.229Z,58.13
2023-09-18T18:43:44.268Z,58.26
2023-09-18T18:46:11.086Z,57.88
2023-09-18T18:48:39.956Z,57.37
2023-09-18T18:51:08.420Z,57.60
2023-09-18T18:53:35.354Z,58.72
2023-09-18T18:56:09.284Z,58.19
2023-09-18T18:58:36.411Z,59.03
2023-09-18T19:01:03.726Z,58.65
2023-09-18T19:06:02.215Z,57.78
2023-09-18T19:08:35.242Z,58.02
2023-09-18T19:11:04.505Z,57.76
2023-09-18T19:13:32.924Z,58.56
2023-09-18T19:15:59.883Z,58.33
2023-09-18T19:18:27.754Z,58.40
2023-09-18T19:20:54.740Z,58.04
2023-09-18T19:23:21.642Z,58.52
2023-09-18T19:25:48.628Z,57.90
2023-09-18T19:28:17.367Z,57.92
2023-09-18T19:30:50.149Z,57.56
2023-09-18T19:33:24.779Z,57.94
2023-09-18T19:36:09.287Z,58.64
2023-09-18T19:38:36.075Z,58.56
2023-09-18T19:41:03.609Z,58.93
2023-09-18T19:43:32.091Z,59.36
2023-09-18T19:46:01.643Z,60.75
2023-09-18T19:48:29.927Z,62.10
2023-09-18T19:51:09.966Z,61.21
2023-09-18T19:53:42.128Z,60.07
2023-09-18T19:56:09.105Z,59.11
2023-09-18T19:58:37.130Z,60.01
2023-09-18T20:01:09.218Z,58.88
2023-09-18T20:03:37.296Z,58.27
2023-09-18T20:06:13.875Z,58.20
2023-09-18T20:08:41.914Z,58.17
2023-09-18T20:11:18.040Z,58.92
2023-09-18T20:13:50.908Z,58.92
2023-09-18T20:16:26.194Z,58.02
2023-09-18T20:18:59.831Z,57.29
2023-09-18T20:21:32.837Z,59.50
2023-09-18T20:24:03.305Z,58.98
2023-09-18T20:26:33.537Z,58.08
2023-09-18T20:31:56.950Z,57.33
2023-09-18T20:34:24.457Z,57.07
2023-09-18T20:36:55.963Z,56.71
2023-09-18T20:39:43.299Z,56.74
2023-09-18T20:45:40.175Z,58.98
2023-09-18T20:51:32.554Z,60.06
2023-09-18T20:54:18.074Z,60.24
2023-09-18T20:56:50.194Z,60.75
2023-09-18T20:59:17.283Z,60.77
2023-09-18T21:01:44.215Z,60.75
2023-09-18T21:04:14.968Z,61.50
2023-09-18T21:06:41.977Z,61.33
2023-09-18T21:09:16.106Z,61.22
2023-09-18T21:11:51.205Z,60.90
2023-09-18T21:14:23.878Z,61.93
2023-09-18T21:16:54.490Z,60.77
2023-09-18T21:19:23.176Z,62.50
2023-09-18T21:21:50.464Z,62.02
2023-09-18T21:24:23.312Z,62.39
2023-09-18T21:26:50.672Z,62.13
2023-09-18T21:29:23.607Z,62.62
2023-09-18T21:34:26.696Z,63.03
2023-09-18T21:39:37.245Z,64.03
2023-09-18T21:42:13.670Z,66.06
2023-09-18T21:47:37.923Z,64.95
2023-09-18T21:58:44.778Z,63.16
2023-09-18T22:01:20.003Z,62.57
2023-09-18T22:03:47.352Z,60.61
2023-09-18T22:06:17.978Z,62.55
2023-09-18T22:08:47.734Z,66.10
2023-09-18T22:11:19.537Z,67.61
2023-09-18T22:13:48.236Z,68.30
2023-09-18T22:16:15.468Z,67.22
2023-09-18T22:18:45.659Z,65.96
2023-09-18T22:21:13.158Z,63.34
2023-09-18T22:23:43.058Z,63.02
2023-09-18T22:26:11.559Z,62.85
2023-09-18T22:28:39.929Z,62.17
2023-09-18T22:31:11.293Z,62.79
2023-09-18T22:33:41.061Z,61.86
2023-09-18T22:36:20.936Z,62.01
2023-09-18T22:38:57.042Z,61.68
2023-09-18T22:41:27.510Z,61.71
2023-09-18T22:44:00.482Z,61.18
2023-09-18T22:49:17.737Z,60.19
2023-09-18T22:51:49.340Z,64.84
2023-09-18T22:54:23.107Z,65.67
2023-09-18T22:56:56.584Z,62.66
2023-09-18T22:59:26.933Z,63.46
2023-09-18T23:01:59.844Z,63.98
2023-09-18T23:04:27.170Z,62.59
2023-09-18T23:06:59.961Z,62.10
2023-09-18T23:09:26.884Z,62.15
2023-09-18T23:11:55.921Z,64.04
2023-09-18T23:14:23.124Z,64.79
2023-09-18T23:16:58.823Z,63.61
2023-09-18T23:19:30.231Z,62.20
2023-09-18T23:24:54.909Z,61.97
2023-09-18T23:27:23.963Z,62.55
2023-09-18T23:29:50.920Z,62.20
2023-09-18T23:32:19.685Z,61.75
2023-09-18T23:34:47.274Z,61.72
2023-09-18T23:37:20.519Z,62.73
2023-09-18T23:39:54.351Z,63.53
2023-09-18T23:42:22.861Z,61.86
2023-09-18T23:44:50.293Z,62.72
2023-09-18T23:47:18.038Z,63.14
2023-09-18T23:49:51.048Z,62.87
2023-09-18T23:52:18.336Z,62.23
2023-09-18T23:54:52.151Z,63.43
2023-09-18T23:57:20.850Z,63.69
2023-09-18T23:59:50.648Z,62.55
